createdAt,value
2023-05-17T00:02:33.248Z,10.32
2023-05-17T00:05:36.846Z,13.48
2023-05-17T00:08:40.329Z,12.75
2023-05-17T00:11:44.127Z,7.82
2023-05-17T00:14:47.712Z,6.05
2023-05-17T00:17:51.127Z,7.85
2023-05-17T00:20:54.587Z,8.05
2023-05-17T00:23:58.177Z,8.30
2023-05-17T00:27:01.785Z,16.77
2023-05-17T00:30:06.106Z,8.60
2023-05-17T00:33:13.687Z,4.93
2023-05-17T00:36:25.566Z,10.70
2023-05-17T00:39:29.062Z,7.65
2023-05-17T00:42:34.530Z,11.45
2023-05-17T00:45:38.346Z,15.65
2023-05-17T00:48:42.156Z,9.43
2023-05-17T00:51:47.478Z,6.70
2023-05-17T00:54:52.476Z,4.88
2023-05-17T00:57:56.107Z,6.18
2023-05-17T01:01:00.961Z,5.75
2023-05-17T01:04:04.619Z,8.85
2023-05-17T01:07:11.903Z,9.20
2023-05-17T01:10:15.344Z,10.80
2023-05-17T01:13:34.089Z,8.85
2023-05-17T01:20:18.768Z,4.53
2023-05-17T01:23:31.368Z,8.65
2023-05-17T01:26:42.252Z,9.98
2023-05-17T01:29:47.130Z,5.15
2023-05-17T01:32:51.762Z,5.32
2023-05-17T01:35:55.332Z,9.05
2023-05-17T01:39:01.256Z,2.60
2023-05-17T01:42:25.436Z,4.20
2023-05-17T01:45:45.071Z,5.60
2023-05-17T01:49:07.737Z,11.25
2023-05-17T01:52:20.331Z,4.00
2023-05-17T01:55:32.396Z,5.60
2023-05-17T01:58:46.561Z,4.82
2023-05-17T02:01:51.018Z,6.65
2023-05-17T02:04:59.213Z,5.78
2023-05-17T02:08:03.514Z,4.97
2023-05-17T02:11:07.243Z,7.93
2023-05-17T02:14:10.748Z,12.00
2023-05-17T02:17:16.878Z,4.28
2023-05-17T02:20:20.416Z,5.95
2023-05-17T02:23:25.710Z,7.47
2023-05-17T02:26:29.258Z,6.65
2023-05-17T02:29:33.259Z,5.47
2023-05-17T02:32:37.225Z,6.75
2023-05-17T02:35:41.046Z,3.47
2023-05-17T02:38:44.572Z,3.95
2023-05-17T02:41:49.053Z,3.60
2023-05-17T02:44:57.161Z,11.68
2023-05-17T02:48:00.791Z,4.25
2023-05-17T02:51:04.584Z,6.57
2023-05-17T02:54:08.172Z,6.65
2023-05-17T02:57:12.214Z,5.75
2023-05-17T03:00:17.586Z,6.05
2023-05-17T03:03:21.439Z,5.07
2023-05-17T03:06:27.581Z,7.13
2023-05-17T03:09:32.029Z,7.70
2023-05-17T03:22:52.299Z,9.05
2023-05-17T03:26:00.432Z,4.93
2023-05-17T03:29:09.034Z,5.30
2023-05-17T03:32:15.285Z,8.50
2023-05-17T03:35:19.604Z,6.95
2023-05-17T03:38:28.642Z,15.15
2023-05-17T03:41:33.565Z,6.03
2023-05-17T03:44:41.480Z,15.25
2023-05-17T03:47:50.637Z,10.63
2023-05-17T03:50:54.735Z,10.32
2023-05-17T03:54:03.427Z,8.35
2023-05-17T03:57:09.161Z,6.53
2023-05-17T04:00:13.604Z,8.75
2023-05-17T04:03:20.236Z,4.78
2023-05-17T04:06:25.870Z,8.48
2023-05-17T04:09:32.831Z,7.80
2023-05-17T04:12:40.153Z,4.45
2023-05-17T04:15:43.723Z,5.85
2023-05-17T04:18:47.689Z,7.22
2023-05-17T04:21:52.993Z,7.38
2023-05-17T04:25:02.600Z,7.82
2023-05-17T04:31:25.724Z,4.88
2023-05-17T04:34:38.474Z,6.32
2023-05-17T04:37:42.956Z,5.10
2023-05-17T04:40:55.641Z,5.93
2023-05-17T04:43:59.346Z,5.00
2023-05-17T04:47:09.330Z,12.00
2023-05-17T04:50:13.500Z,7.30
2023-05-17T04:53:17.496Z,12.43
2023-05-17T04:56:21.112Z,9.13
2023-05-17T04:59:25.596Z,7.85
2023-05-17T05:02:29.386Z,10.77
2023-05-17T05:05:33.373Z,17.10
2023-05-17T05:08:38.661Z,10.20
2023-05-17T05:11:45.486Z,5.00
2023-05-17T05:14:49.385Z,9.55
2023-05-17T05:17:53.653Z,6.50
2023-05-17T05:20:58.055Z,9.98
2023-05-17T05:24:02.755Z,4.72
2023-05-17T05:27:07.417Z,5.95
2023-05-17T05:30:13.411Z,9.05
2023-05-17T05:33:17.085Z,4.57
2023-05-17T05:36:22.734Z,3.10
2023-05-17T05:39:26.762Z,4.80
2023-05-17T05:42:33.122Z,5.60
2023-05-17T05:48:58.188Z,6.88
2023-05-17T05:52:07.264Z,10.52
2023-05-17T05:55:13.547Z,13.82
2023-05-17T05:58:21.112Z,16.50
2023-05-17T06:01:27.394Z,13.18
2023-05-17T06:04:41.233Z,6.82
2023-05-17T06:07:58.590Z,13.35
2023-05-17T06:11:02.323Z,5.03
2023-05-17T06:17:24.415Z,5.80
2023-05-17T06:20:35.007Z,5.45
2023-05-17T06:23:39.143Z,9.63
2023-05-17T06:26:44.911Z,9.90
2023-05-17T06:29:48.547Z,8.75
2023-05-17T06:32:52.253Z,10.57
2023-05-17T06:35:58.122Z,6.68
2023-05-17T06:39:03.063Z,11.73
2023-05-17T06:42:14.772Z,12.10
2023-05-17T06:45:25.170Z,7.78
2023-05-17T06:48:33.051Z,7.13
2023-05-17T06:51:48.108Z,5.97
2023-05-17T06:54:53.387Z,5.60
2023-05-17T06:58:02.864Z,11.82
2023-05-17T07:01:08.131Z,13.20
2023-05-17T07:04:18.704Z,10.52
2023-05-17T07:07:24.537Z,10.63
2023-05-17T07:10:28.270Z,8.75
2023-05-17T07:13:32.215Z,6.88
2023-05-17T07:16:40.549Z,5.35
2023-05-17T07:19:44.886Z,8.40
2023-05-17T07:22:50.206Z,8.43
2023-05-17T07:25:54.113Z,6.97
2023-05-17T07:28:57.979Z,6.47
2023-05-17T07:32:01.434Z,4.55
2023-05-17T07:35:05.028Z,7.75
2023-05-17T07:38:08.951Z,3.58
2023-05-17T07:41:14.626Z,7.20
2023-05-17T07:44:18.156Z,7.50
2023-05-17T07:47:21.656Z,6.47
2023-05-17T07:50:32.541Z,14.98
2023-05-17T07:53:45.263Z,4.72
2023-05-17T08:00:43.391Z,7.78
2023-05-17T08:07:13.061Z,9.93
2023-05-17T08:10:17.519Z,9.60
2023-05-17T08:13:25.361Z,9.60
2023-05-17T08:16:32.307Z,8.70
2023-05-17T08:19:36.009Z,13.13
2023-05-17T08:22:39.715Z,7.88
2023-05-17T08:25:43.270Z,8.68
2023-05-17T08:28:47.204Z,10.77
2023-05-17T08:32:04.936Z,8.57
2023-05-17T08:35:09.355Z,7.57
2023-05-17T08:38:12.902Z,4.25
2023-05-17T08:41:16.461Z,9.52
2023-05-17T08:44:20.252Z,12.30
2023-05-17T08:47:30.403Z,12.10
2023-05-17T08:50:36.696Z,9.73
2023-05-17T08:53:40.258Z,6.25
2023-05-17T08:56:44.566Z,5.20
2023-05-17T08:59:48.954Z,8.70
2023-05-17T09:02:52.525Z,6.32
2023-05-17T09:05:56.503Z,6.50
2023-05-17T09:09:02.142Z,5.35
2023-05-17T09:12:06.497Z,7.15
2023-05-17T09:15:21.652Z,5.82
2023-05-17T09:18:34.508Z,5.97
2023-05-17T09:21:38.952Z,8.98
2023-05-17T09:24:43.305Z,11.30
2023-05-17T09:27:46.823Z,9.93
2023-05-17T09:30:54.827Z,9.60
2023-05-17T09:34:00.665Z,11.93
2023-05-17T09:37:07.325Z,6.20
2023-05-17T09:43:17.961Z,10.30
2023-05-17T09:46:25.445Z,7.45
2023-05-17T09:49:31.571Z,9.68
2023-05-17T09:52:38.728Z,8.02
2023-05-17T09:55:42.316Z,9.75
2023-05-17T09:58:47.442Z,4.60
2023-05-17T10:01:55.724Z,6.05
2023-05-17T10:04:59.812Z,11.80
2023-05-17T10:08:06.757Z,4.65
2023-05-17T10:11:12.248Z,8.73
2023-05-17T10:14:28.163Z,9.02
2023-05-17T10:17:33.083Z,9.05
2023-05-17T10:20:37.954Z,7.03
2023-05-17T10:23:45.235Z,7.25
2023-05-17T10:26:51.704Z,6.80
2023-05-17T10:29:56.275Z,9.85
2023-05-17T10:33:10.170Z,10.48
2023-05-17T10:36:18.513Z,11.13
2023-05-17T10:39:23.279Z,3.75
2023-05-17T10:42:28.926Z,9.32
2023-05-17T10:45:32.737Z,8.98
2023-05-17T10:48:38.375Z,7.65
2023-05-17T10:51:42.143Z,13.18
2023-05-17T10:54:48.947Z,13.55
2023-05-17T10:58:17.516Z,8.93
2023-05-17T11:01:58.250Z,11.82
2023-05-17T11:05:03.404Z,28.77
2023-05-17T11:08:22.469Z,9.10
2023-05-17T11:14:45.837Z,6.00
2023-05-17T11:17:55.307Z,11.77
2023-05-17T11:21:14.479Z,5.18
2023-05-17T11:24:29.837Z,16.42
2023-05-17T11:27:40.059Z,24.67
2023-05-17T11:30:52.628Z,23.60
2023-05-17T11:33:56.405Z,8.48
2023-05-17T11:36:59.865Z,9.50
2023-05-17T11:40:09.190Z,7.95
2023-05-17T11:43:14.247Z,9.27
2023-05-17T11:46:25.586Z,10.57
2023-05-17T11:49:35.774Z,13.55
2023-05-17T11:52:42.526Z,8.80
2023-05-17T11:55:53.516Z,7.32
2023-05-17T11:58:57.499Z,10.82
2023-05-17T12:02:01.145Z,8.43
2023-05-17T12:05:04.791Z,6.68
2023-05-17T12:08:08.313Z,13.25
2023-05-17T12:11:19.502Z,12.93
2023-05-17T12:14:23.334Z,12.25
2023-05-17T12:17:38.375Z,18.38
2023-05-17T12:20:58.315Z,15.18
2023-05-17T12:24:02.015Z,15.30
2023-05-17T12:27:06.850Z,15.18
2023-05-17T12:30:17.162Z,41.10
2023-05-17T12:36:38.126Z,10.93
2023-05-17T12:39:41.898Z,14.63
2023-05-17T12:42:45.421Z,14.98
2023-05-17T12:45:49.040Z,20.48
2023-05-17T12:48:53.512Z,12.30
2023-05-17T12:51:57.207Z,12.57
2023-05-17T12:55:01.004Z,14.65
2023-05-17T12:58:05.577Z,12.88
2023-05-17T13:01:11.471Z,9.18
2023-05-17T13:04:18.882Z,10.30
2023-05-17T13:07:27.239Z,16.25
2023-05-17T13:10:31.116Z,12.45
2023-05-17T13:13:35.130Z,11.98
2023-05-17T13:16:42.056Z,13.75
2023-05-17T13:22:49.658Z,11.25
2023-05-17T13:25:54.738Z,12.93
2023-05-17T13:28:58.177Z,16.95
2023-05-17T13:32:01.938Z,54.60
2023-05-17T13:35:06.012Z,9.13
2023-05-17T13:38:09.545Z,8.73
2023-05-17T13:41:13.067Z,8.50
2023-05-17T13:44:16.755Z,14.25
2023-05-17T13:47:20.435Z,12.38
2023-05-17T13:50:24.813Z,8.52
2023-05-17T13:53:28.411Z,10.50
2023-05-17T13:56:32.091Z,6.28
2023-05-17T13:59:35.568Z,9.73
2023-05-17T14:02:39.055Z,14.10
2023-05-17T14:05:42.670Z,7.40
2023-05-17T14:08:46.919Z,20.63
2023-05-17T14:11:50.435Z,34.35
2023-05-17T14:14:53.904Z,40.05
2023-05-17T14:17:57.849Z,42.17
2023-05-17T14:21:01.870Z,27.48
2023-05-17T14:24:05.430Z,34.85
2023-05-17T14:27:08.939Z,28.02
2023-05-17T14:30:13.606Z,34.75
2023-05-17T14:33:17.422Z,27.88
2023-05-17T14:36:21.002Z,33.33
2023-05-17T14:39:24.464Z,32.45
2023-05-17T14:42:28.422Z,28.30
2023-05-17T14:45:31.864Z,31.08
2023-05-17T14:48:35.471Z,33.60
2023-05-17T14:51:41.585Z,30.30
2023-05-17T14:54:45.254Z,38.42
2023-05-17T14:57:48.711Z,29.83
2023-05-17T15:01:05.633Z,34.40
2023-05-17T15:04:11.121Z,31.48
2023-05-17T15:07:14.823Z,27.25
2023-05-17T15:10:18.446Z,37.67
2023-05-17T15:13:22.391Z,30.77
2023-05-17T15:16:26.043Z,24.77
2023-05-17T15:19:29.668Z,22.90
2023-05-17T15:22:33.190Z,22.30
2023-05-17T15:25:37.203Z,24.55
2023-05-17T15:28:40.731Z,19.60
2023-05-17T15:31:44.160Z,15.20
2023-05-17T15:34:47.711Z,15.25
2023-05-17T15:37:54.390Z,18.45
2023-05-17T15:41:09.155Z,14.80
2023-05-17T15:44:13.361Z,21.73
2023-05-17T15:47:16.862Z,18.88
2023-05-17T15:50:20.353Z,13.98
2023-05-17T15:53:24.698Z,16.13
2023-05-17T15:56:28.170Z,17.63
2023-05-17T15:59:31.828Z,19.30
2023-05-17T16:02:35.465Z,15.55
2023-05-17T16:05:39.769Z,18.98
2023-05-17T16:08:43.412Z,17.10
2023-05-17T16:11:47.085Z,15.23
2023-05-17T16:14:50.545Z,14.07
2023-05-17T16:17:54.669Z,17.52
2023-05-17T16:21:00.936Z,15.27
2023-05-17T16:24:05.098Z,16.38
2023-05-17T16:27:08.904Z,19.45
2023-05-17T16:30:13.600Z,22.08
2023-05-17T16:33:17.315Z,25.35
2023-05-17T16:36:23.384Z,27.13
2023-05-17T16:39:28.086Z,22.33
2023-05-17T16:42:31.778Z,24.08
2023-05-17T16:45:35.483Z,17.85
2023-05-17T16:48:38.850Z,18.58
2023-05-17T16:51:46.242Z,19.38
2023-05-17T16:54:50.038Z,13.65
2023-05-17T16:57:53.456Z,16.75
2023-05-17T17:00:59.796Z,14.85
2023-05-17T17:04:27.978Z,16.33
2023-05-17T17:07:31.553Z,10.73
2023-05-17T17:10:36.762Z,12.52
2023-05-17T17:13:40.310Z,11.25
2023-05-17T17:16:43.789Z,14.38
2023-05-17T17:19:47.322Z,16.65
2023-05-17T17:22:50.713Z,13.07
2023-05-17T17:25:57.195Z,10.98
2023-05-17T17:29:00.614Z,15.65
2023-05-17T17:32:08.104Z,10.45
2023-05-17T17:35:11.800Z,10.18
2023-05-17T17:38:18.596Z,20.98
2023-05-17T17:41:22.297Z,13.32
2023-05-17T17:44:29.563Z,20.52
2023-05-17T17:50:45.192Z,16.05
2023-05-17T17:53:57.733Z,21.15
2023-05-17T17:57:01.329Z,17.75
2023-05-17T18:00:05.190Z,18.30
2023-05-17T18:03:08.758Z,22.05
2023-05-17T18:06:29.599Z,23.42
2023-05-17T18:09:33.044Z,24.15
2023-05-17T18:12:43.487Z,21.88
2023-05-17T18:16:12.305Z,23.05
2023-05-17T18:19:18.643Z,17.58
2023-05-17T18:22:47.058Z,18.88
2023-05-17T18:25:51.394Z,17.00
2023-05-17T18:29:20.197Z,18.40
2023-05-17T18:32:39.143Z,12.13
2023-05-17T18:36:08.119Z,11.25
2023-05-17T18:39:33.028Z,20.38
2023-05-17T18:42:39.604Z,14.77
2023-05-17T18:45:43.088Z,12.13
2023-05-17T18:48:49.675Z,11.52
2023-05-17T18:51:53.118Z,13.70
2023-05-17T18:54:56.561Z,10.77
2023-05-17T18:58:36.958Z,11.75
2023-05-17T19:01:40.574Z,11.88
2023-05-17T19:04:45.082Z,17.85
2023-05-17T19:07:51.888Z,13.27
2023-05-17T19:10:58.377Z,14.98
2023-05-17T19:14:02.039Z,16.70
2023-05-17T19:17:10.817Z,15.48
2023-05-17T19:20:17.861Z,11.60
2023-05-17T19:23:22.188Z,14.35
2023-05-17T19:26:25.797Z,9.50
2023-05-17T19:29:32.080Z,9.68
2023-05-17T19:32:35.491Z,10.80
2023-05-17T19:35:51.109Z,8.10
2023-05-17T19:38:55.280Z,9.85
2023-05-17T19:42:04.774Z,8.50
2023-05-17T19:45:11.685Z,12.52
2023-05-17T19:48:15.196Z,12.30
2023-05-17T19:51:18.592Z,19.75
2023-05-17T19:54:22.727Z,18.80
2023-05-17T19:58:19.149Z,17.63
2023-05-17T20:01:22.816Z,12.10
2023-05-17T20:04:29.777Z,14.27
2023-05-17T20:07:34.276Z,14.23
2023-05-17T20:10:40.670Z,14.40
2023-05-17T20:14:12.382Z,17.40
2023-05-17T20:17:19.049Z,15.48
2023-05-17T20:20:22.672Z,16.77
2023-05-17T20:23:26.224Z,15.32
2023-05-17T20:26:32.417Z,16.25
2023-05-17T20:29:35.777Z,15.75
2023-05-17T20:32:39.283Z,12.43
2023-05-17T20:35:42.755Z,13.05
2023-05-17T20:38:46.263Z,12.73
2023-05-17T20:41:51.183Z,13.32
2023-05-17T20:45:04.439Z,13.85
2023-05-17T20:48:08.464Z,16.52
2023-05-17T20:51:12.050Z,12.98
2023-05-17T20:54:18.602Z,17.20
2023-05-17T20:57:22.256Z,16.73
2023-05-17T21:00:26.427Z,15.75
2023-05-17T21:03:45.513Z,14.48
2023-05-17T21:06:49.009Z,18.83
2023-05-17T21:09:52.521Z,16.42
2023-05-17T21:13:03.984Z,13.73
2023-05-17T21:16:24.383Z,16.40
2023-05-17T21:19:28.276Z,10.52
2023-05-17T21:22:31.694Z,9.27
2023-05-17T21:25:35.831Z,10.55
2023-05-17T21:28:39.410Z,8.70
2023-05-17T21:31:43.056Z,14.05
2023-05-17T21:34:46.574Z,13.85
2023-05-17T21:37:56.148Z,14.52
2023-05-17T21:40:59.681Z,21.45
2023-05-17T21:44:06.173Z,18.35
2023-05-17T21:47:10.229Z,20.15
2023-05-17T21:50:13.827Z,12.00
2023-05-17T21:53:17.332Z,15.65
2023-05-17T21:56:21.334Z,7.38
2023-05-17T21:59:27.860Z,10.02
2023-05-17T22:02:31.538Z,12.43
2023-05-17T22:05:35.351Z,20.35
2023-05-17T22:08:38.776Z,10.95
2023-05-17T22:11:49.358Z,14.68
2023-05-17T22:14:59.427Z,16.95
2023-05-17T22:18:05.937Z,16.33
2023-05-17T22:21:15.359Z,17.63
2023-05-17T22:24:20.813Z,17.10
2023-05-17T22:27:24.378Z,17.98
2023-05-17T22:30:27.803Z,12.02
2023-05-17T22:33:31.708Z,22.58
2023-05-17T22:36:35.476Z,13.15
2023-05-17T22:39:43.824Z,12.88
2023-05-17T22:42:53.460Z,14.05
2023-05-17T22:46:22.501Z,31.05
2023-05-17T22:49:27.021Z,19.23
2023-05-17T22:52:30.498Z,19.20
2023-05-17T22:55:49.514Z,18.50
2023-05-17T22:58:53.182Z,14.65
2023-05-17T23:01:56.729Z,23.27
2023-05-17T23:05:04.513Z,16.95
2023-05-17T23:08:10.885Z,24.60
2023-05-17T23:11:41.841Z,18.73
2023-05-17T23:15:07.662Z,17.55
2023-05-17T23:19:01.039Z,17.52
2023-05-17T23:22:08.701Z,20.70
2023-05-17T23:25:16.926Z,15.40
2023-05-17T23:28:25.994Z,16.35
2023-05-17T23:31:30.720Z,18.95
2023-05-17T23:34:34.634Z,30.02
2023-05-17T23:37:38.319Z,19.33
2023-05-17T23:40:42.081Z,17.67
2023-05-17T23:43:48.093Z,26.52
2023-05-17T23:46:54.725Z,18.75
2023-05-17T23:49:58.639Z,18.80
2023-05-17T23:53:05.420Z,20.40
2023-05-17T23:56:08.985Z,24.88
2023-05-17T23:59:12.949Z,17.60
